sensor_id;sensor_type;location;lat;lon;timestamp;pressure;altitude;pressure_sealevel;temperature;humidity
44138;BME280;29800;55.942;37.314;2023-05-08T00:00:44;100924.53;;;1.93;55.90
44138;BME280;29800;55.942;37.314;2023-05-08T00:03:10;100920.16;;;1.92;56.14
44138;BME280;29800;55.942;37.314;2023-05-08T00:05:37;100925.56;;;1.92;55.42
44138;BME280;29800;55.942;37.314;2023-05-08T00:08:06;100927.41;;;1.92;56.21
44138;BME280;29800;55.942;37.314;2023-05-08T00:10:32;100936.53;;;1.91;55.75
44138;BME280;29800;55.942;37.314;2023-05-08T00:12:58;100935.00;;;1.88;55.46
44138;BME280;29800;55.942;37.314;2023-05-08T00:15:25;100932.28;;;1.88;55.83
44138;BME280;29800;55.942;37.314;2023-05-08T00:17:51;100931.44;;;1.88;56.30
44138;BME280;29800;55.942;37.314;2023-05-08T00:20:17;100935.16;;;1.87;56.00
44138;BME280;29800;55.942;37.314;2023-05-08T00:22:44;100932.44;;;1.87;55.82
44138;BME280;29800;55.942;37.314;2023-05-08T00:25:10;100937.34;;;1.83;56.52
44138;BME280;29800;55.942;37.314;2023-05-08T00:27:37;100931.28;;;1.81;56.40
44138;BME280;29800;55.942;37.314;2023-05-08T00:30:04;100930.59;;;1.79;56.13
44138;BME280;29800;55.942;37.314;2023-05-08T00:32:32;100935.28;;;1.77;56.53
44138;BME280;29800;55.942;37.314;2023-05-08T00:34:59;100938.31;;;1.74;57.16
44138;BME280;29800;55.942;37.314;2023-05-08T00:37:25;100940.19;;;1.73;56.50
44138;BME280;29800;55.942;37.314;2023-05-08T00:39:52;100938.81;;;1.69;56.96
44138;BME280;29800;55.942;37.314;2023-05-08T00:42:18;100938.97;;;1.68;56.39
44138;BME280;29800;55.942;37.314;2023-05-08T00:44:44;100937.59;;;1.63;56.45
44138;BME280;29800;55.942;37.314;2023-05-08T00:47:11;100944.72;;;1.64;56.37
44138;BME280;29800;55.942;37.314;2023-05-08T00:49:37;100952.66;;;1.66;56.55
44138;BME280;29800;55.942;37.314;2023-05-08T00:52:04;100951.78;;;1.65;57.12
44138;BME280;29800;55.942;37.314;2023-05-08T00:54:37;100955.34;;;1.66;57.16
44138;BME280;29800;55.942;37.314;2023-05-08T00:57:07;100957.56;;;1.71;57.21
44138;BME280;29800;55.942;37.314;2023-05-08T00:59:35;100955.88;;;1.78;56.62
44138;BME280;29800;55.942;37.314;2023-05-08T01:02:02;100959.44;;;1.87;56.32
44138;BME280;29800;55.942;37.314;2023-05-08T01:04:29;100960.63;;;1.84;56.77
44138;BME280;29800;55.942;37.314;2023-05-08T01:06:56;100958.94;;;1.83;56.31
44138;BME280;29800;55.942;37.314;2023-05-08T01:09:23;100960.97;;;1.81;56.70
44138;BME280;29800;55.942;37.314;2023-05-08T01:14:50;100959.13;;;1.90;56.59
44138;BME280;29800;55.942;37.314;2023-05-08T01:17:29;100952.88;;;1.81;55.83
44138;BME280;29800;55.942;37.314;2023-05-08T01:20:14;100952.19;;;1.79;56.23
44138;BME280;29800;55.942;37.314;2023-05-08T01:22:59;100954.50;;;1.74;56.27
44138;BME280;29800;55.942;37.314;2023-05-08T01:32:22;100956.38;;;1.73;56.05
44138;BME280;29800;55.942;37.314;2023-05-08T01:40:49;100962.53;;;1.57;57.11
44138;BME280;29800;55.942;37.314;2023-05-08T01:43:38;100962.94;;;1.62;56.49
44138;BME280;29800;55.942;37.314;2023-05-08T01:46:15;100961.22;;;1.61;57.11
44138;BME280;29800;55.942;37.314;2023-05-08T01:48:48;100969.78;;;1.57;57.26
44138;BME280;29800;55.942;37.314;2023-05-08T01:51:20;100971.81;;;1.55;57.25
44138;BME280;29800;55.942;37.314;2023-05-08T01:53:51;100977.22;;;1.55;56.89
44138;BME280;29800;55.942;37.314;2023-05-08T01:56:23;100986.78;;;1.49;57.01
44138;BME280;29800;55.942;37.314;2023-05-08T01:58:52;100979.03;;;1.46;56.67
44138;BME280;29800;55.942;37.314;2023-05-08T02:01:22;100984.09;;;1.49;56.92
44138;BME280;29800;55.942;37.314;2023-05-08T02:03:51;100982.78;;;1.53;56.56
44138;BME280;29800;55.942;37.314;2023-05-08T02:06:20;100977.69;;;1.50;57.11
44138;BME280;29800;55.942;37.314;2023-05-08T02:08:48;100977.69;;;1.50;57.11
44138;BME280;29800;55.942;37.314;2023-05-08T02:11:17;100985.47;;;1.53;56.69
44138;BME280;29800;55.942;37.314;2023-05-08T02:13:46;100987.16;;;1.54;56.13
44138;BME280;29800;55.942;37.314;2023-05-08T02:16:14;100991.69;;;1.54;56.54
44138;BME280;29800;55.942;37.314;2023-05-08T02:18:46;100994.09;;;1.57;56.85
44138;BME280;29800;55.942;37.314;2023-05-08T02:21:14;100992.22;;;1.57;57.09
44138;BME280;29800;55.942;37.314;2023-05-08T02:23:43;100993.94;;;1.58;56.93
44138;BME280;29800;55.942;37.314;2023-05-08T02:26:11;100991.22;;;1.58;56.84
44138;BME280;29800;55.942;37.314;2023-05-08T02:28:39;100993.94;;;1.58;56.82
44138;BME280;29800;55.942;37.314;2023-05-08T02:31:10;100995.31;;;1.62;57.21
44138;BME280;29800;55.942;37.314;2023-05-08T02:33:40;100994.44;;;1.62;56.81
44138;BME280;29800;55.942;37.314;2023-05-08T02:36:08;100999.22;;;1.68;56.78
44138;BME280;29800;55.942;37.314;2023-05-08T02:38:37;101001.91;;;1.68;56.77
44138;BME280;29800;55.942;37.314;2023-05-08T02:41:05;100999.88;;;1.70;57.24
44138;BME280;29800;55.942;37.314;2023-05-08T02:43:34;101004.81;;;1.75;57.47
44138;BME280;29800;55.942;37.314;2023-05-08T02:46:13;101001.97;;;1.84;56.99
44138;BME280;29800;55.942;37.314;2023-05-08T02:49:30;100999.97;;;1.95;57.02
44138;BME280;29800;55.942;37.314;2023-05-08T02:52:27;101002.88;;;2.01;57.45
44138;BME280;29800;55.942;37.314;2023-05-08T02:55:04;101006.59;;;2.00;57.05
44138;BME280;29800;55.942;37.314;2023-05-08T03:02:39;101023.19;;;2.14;56.31
44138;BME280;29800;55.942;37.314;2023-05-08T03:05:13;101025.56;;;2.17;56.71
44138;BME280;29800;55.942;37.314;2023-05-08T03:07:41;101028.78;;;2.20;56.52
44138;BME280;29800;55.942;37.314;2023-05-08T03:10:11;101028.63;;;2.22;56.02
44138;BME280;29800;55.942;37.314;2023-05-08T03:12:48;101031.03;;;2.33;55.79
44138;BME280;29800;55.942;37.314;2023-05-08T03:15:56;101028.00;;;2.45;55.79
44138;BME280;29800;55.942;37.314;2023-05-08T03:18:35;101029.34;;;2.49;55.96
44138;BME280;29800;55.942;37.314;2023-05-08T03:21:08;101032.72;;;2.51;55.80
44138;BME280;29800;55.942;37.314;2023-05-08T03:23:39;101033.13;;;2.56;55.72
44138;BME280;29800;55.942;37.314;2023-05-08T03:26:06;101034.28;;;2.62;56.15
44138;BME280;29800;55.942;37.314;2023-05-08T03:28:34;101036.00;;;2.71;55.48
44138;BME280;29800;55.942;37.314;2023-05-08T03:31:04;101034.97;;;2.80;55.75
44138;BME280;29800;55.942;37.314;2023-05-08T03:33:31;101045.97;;;2.95;54.97
44138;BME280;29800;55.942;37.314;2023-05-08T03:35:58;101042.09;;;3.06;55.54
44138;BME280;29800;55.942;37.314;2023-05-08T03:38:25;101041.25;;;3.22;54.42
44138;BME280;29800;55.942;37.314;2023-05-08T03:40:52;101047.34;;;3.32;54.57
44138;BME280;29800;55.942;37.314;2023-05-08T03:43:19;101051.41;;;3.44;54.19
44138;BME280;29800;55.942;37.314;2023-05-08T03:45:46;101052.03;;;3.55;54.27
44138;BME280;29800;55.942;37.314;2023-05-08T03:48:15;101051.50;;;3.67;54.35
44138;BME280;29800;55.942;37.314;2023-05-08T03:50:43;101048.06;;;3.82;54.89
44138;BME280;29800;55.942;37.314;2023-05-08T03:53:10;101047.34;;;3.96;54.35
44138;BME280;29800;55.942;37.314;2023-05-08T03:55:36;101049.16;;;4.12;54.10
44138;BME280;29800;55.942;37.314;2023-05-08T04:03:49;101048.25;;;4.59;53.32
44138;BME280;29800;55.942;37.314;2023-05-08T04:12:08;101047.28;;;5.22;51.85
44138;BME280;29800;55.942;37.314;2023-05-08T04:14:47;101046.94;;;5.40;50.72
44138;BME280;29800;55.942;37.314;2023-05-08T04:17:22;101040.59;;;5.62;50.67
44138;BME280;29800;55.942;37.314;2023-05-08T04:19:57;101032.94;;;5.81;49.99
44138;BME280;29800;55.942;37.314;2023-05-08T04:22:26;101039.06;;;5.98;49.98
44138;BME280;29800;55.942;37.314;2023-05-08T04:24:57;101043.06;;;6.17;49.00
44138;BME280;29800;55.942;37.314;2023-05-08T04:27:25;101034.72;;;6.33;49.52
44138;BME280;29800;55.942;37.314;2023-05-08T04:29:52;101039.25;;;6.48;49.04
44138;BME280;29800;55.942;37.314;2023-05-08T04:32:20;101043.44;;;6.65;49.44
44138;BME280;29800;55.942;37.314;2023-05-08T04:34:48;101047.59;;;6.83;48.17
44138;BME280;29800;55.942;37.314;2023-05-08T04:37:26;101044.88;;;7.04;48.31
44138;BME280;29800;55.942;37.314;2023-05-08T04:39:54;101048.34;;;7.20;47.08
44138;BME280;29800;55.942;37.314;2023-05-08T04:42:21;101046.78;;;7.32;46.53
44138;BME280;29800;55.942;37.314;2023-05-08T04:44:51;101043.53;;;7.43;46.03
44138;BME280;29800;55.942;37.314;2023-05-08T04:47:18;101044.28;;;7.59;45.36
44138;BME280;29800;55.942;37.314;2023-05-08T04:49:45;101039.78;;;7.72;45.42
44138;BME280;29800;55.942;37.314;2023-05-08T04:52:12;101042.38;;;7.87;45.36
44138;BME280;29800;55.942;37.314;2023-05-08T04:54:39;101043.47;;;8.00;44.35
44138;BME280;29800;55.942;37.314;2023-05-08T04:57:05;101042.06;;;8.10;44.09
44138;BME280;29800;55.942;37.314;2023-05-08T04:59:33;101044.47;;;8.27;43.39
44138;BME280;29800;55.942;37.314;2023-05-08T05:01:59;101042.38;;;8.36;42.71
44138;BME280;29800;55.942;37.314;2023-05-08T05:04:31;101037.00;;;8.49;43.04
44138;BME280;29800;55.942;37.314;2023-05-08T05:06:57;101029.72;;;8.63;41.85
44138;BME280;29800;55.942;37.314;2023-05-08T05:09:24;101036.44;;;8.74;41.41
44138;BME280;29800;55.942;37.314;2023-05-08T05:11:51;101042.19;;;8.99;41.31
44138;BME280;29800;55.942;37.314;2023-05-08T05:14:18;101037.16;;;9.09;39.43
44138;BME280;29800;55.942;37.314;2023-05-08T05:16:44;101044.31;;;9.37;40.73
44138;BME280;29800;55.942;37.314;2023-05-08T05:19:11;101045.13;;;9.37;40.22
44138;BME280;29800;55.942;37.314;2023-05-08T05:21:38;101044.72;;;9.41;39.91
44138;BME280;29800;55.942;37.314;2023-05-08T05:24:05;101043.47;;;9.43;39.35
44138;BME280;29800;55.942;37.314;2023-05-08T05:26:31;101049.34;;;9.47;39.35
44138;BME280;29800;55.942;37.314;2023-05-08T05:28:58;101047.63;;;9.59;38.64
44138;BME280;29800;55.942;37.314;2023-05-08T05:31:24;101057.31;;;9.68;38.39
44138;BME280;29800;55.942;37.314;2023-05-08T05:33:51;101052.25;;;9.79;38.13
44138;BME280;29800;55.942;37.314;2023-05-08T05:36:18;101053.28;;;9.91;36.88
44138;BME280;29800;55.942;37.314;2023-05-08T05:38:45;101054.31;;;9.97;37.03
44138;BME280;29800;55.942;37.314;2023-05-08T05:41:11;101049.69;;;9.97;36.50
44138;BME280;29800;55.942;37.314;2023-05-08T05:43:39;101048.81;;;10.03;36.38
44138;BME280;29800;55.942;37.314;2023-05-08T05:46:06;101058.06;;;10.16;36.32
44138;BME280;29800;55.942;37.314;2023-05-08T05:48:34;101055.09;;;10.24;35.87
44138;BME280;29800;55.942;37.314;2023-05-08T05:51:01;101054.00;;;10.38;35.59
44138;BME280;29800;55.942;37.314;2023-05-08T05:53:29;101053.59;;;10.41;35.84
44138;BME280;29800;55.942;37.314;2023-05-08T05:55:55;101059.25;;;10.46;35.32
44138;BME280;29800;55.942;37.314;2023-05-08T05:58:22;101057.94;;;10.49;34.74
44138;BME280;29800;55.942;37.314;2023-05-08T06:00:48;101053.53;;;10.55;34.54
44138;BME280;29800;55.942;37.314;2023-05-08T06:03:15;101052.84;;;10.66;34.35
44138;BME280;29800;55.942;37.314;2023-05-08T06:05:42;101054.06;;;10.70;33.93
44138;BME280;29800;55.942;37.314;2023-05-08T06:08:08;101063.72;;;10.79;34.22
44138;BME280;29800;55.942;37.314;2023-05-08T06:10:36;101060.28;;;10.91;33.71
44138;BME280;29800;55.942;37.314;2023-05-08T06:13:02;101062.31;;;11.02;34.53
44138;BME280;29800;55.942;37.314;2023-05-08T06:15:29;101057.28;;;11.24;33.58
44138;BME280;29800;55.942;37.314;2023-05-08T06:17:55;101063.69;;;11.43;33.06
44138;BME280;29800;55.942;37.314;2023-05-08T06:20:22;101056.03;;;11.52;32.51
44138;BME280;29800;55.942;37.314;2023-05-08T06:22:49;101056.28;;;11.69;32.44
44138;BME280;29800;55.942;37.314;2023-05-08T06:25:17;101058.59;;;11.97;33.21
44138;BME280;29800;55.942;37.314;2023-05-08T06:27:46;101059.78;;;12.01;31.57
44138;BME280;29800;55.942;37.314;2023-05-08T06:30:12;101061.03;;;12.05;31.12
44138;BME280;29800;55.942;37.314;2023-05-08T06:32:39;101057.56;;;12.10;31.05
44138;BME280;29800;55.942;37.314;2023-05-08T06:35:05;101051.63;;;12.13;30.08
44138;BME280;29800;55.942;37.314;2023-05-08T06:37:32;101047.97;;;12.19;30.81
44138;BME280;29800;55.942;37.314;2023-05-08T06:39:58;101049.06;;;12.37;31.46
44138;BME280;29800;55.942;37.314;2023-05-08T06:42:25;101046.13;;;12.50;30.43
44138;BME280;29800;55.942;37.314;2023-05-08T06:44:52;101049.06;;;12.67;30.32
44138;BME280;29800;55.942;37.314;2023-05-08T06:47:19;101043.78;;;12.84;30.80
44138;BME280;29800;55.942;37.314;2023-05-08T06:49:46;101042.28;;;13.12;30.50
44138;BME280;29800;55.942;37.314;2023-05-08T06:52:13;101026.78;;;13.29;30.05
44138;BME280;29800;55.942;37.314;2023-05-08T06:54:39;101038.44;;;13.43;29.71
44138;BME280;29800;55.942;37.314;2023-05-08T06:57:07;101033.06;;;13.36;28.53
44138;BME280;29800;55.942;37.314;2023-05-08T06:59:33;101032.56;;;13.39;28.03
44138;BME280;29800;55.942;37.314;2023-05-08T07:02:00;101030.56;;;13.58;29.82
44138;BME280;29800;55.942;37.314;2023-05-08T07:04:26;101034.00;;;13.54;28.32
44138;BME280;29800;55.942;37.314;2023-05-08T07:06:53;101034.25;;;13.40;27.92
44138;BME280;29800;55.942;37.314;2023-05-08T07:09:19;101041.22;;;13.13;28.19
44138;BME280;29800;55.942;37.314;2023-05-08T07:11:46;101037.63;;;12.70;28.61
44138;BME280;29800;55.942;37.314;2023-05-08T07:14:13;101052.53;;;12.44;29.07
44138;BME280;29800;55.942;37.314;2023-05-08T07:16:39;101036.25;;;12.12;29.73
44138;BME280;29800;55.942;37.314;2023-05-08T07:19:06;101038.63;;;11.83;30.10
44138;BME280;29800;55.942;37.314;2023-05-08T07:21:32;101034.69;;;11.79;30.40
44138;BME280;29800;55.942;37.314;2023-05-08T07:23:59;101037.56;;;11.84;29.84
44138;BME280;29800;55.942;37.314;2023-05-08T07:26:26;101035.66;;;11.85;29.52
44138;BME280;29800;55.942;37.314;2023-05-08T07:28:52;101045.25;;;11.75;30.48
44138;BME280;29800;55.942;37.314;2023-05-08T07:31:22;101038.00;;;11.63;30.39
44138;BME280;29800;55.942;37.314;2023-05-08T07:33:48;101036.88;;;11.45;31.25
44138;BME280;29800;55.942;37.314;2023-05-08T07:36:15;101031.34;;;11.27;31.28
44138;BME280;29800;55.942;37.314;2023-05-08T07:38:41;101029.34;;;11.15;31.37
44138;BME280;29800;55.942;37.314;2023-05-08T07:41:08;101031.91;;;11.10;30.89
44138;BME280;29800;55.942;37.314;2023-05-08T07:43:34;101030.66;;;11.06;32.23
44138;BME280;29800;55.942;37.314;2023-05-08T07:46:01;101034.91;;;11.02;32.30
44138;BME280;29800;55.942;37.314;2023-05-08T07:48:27;101026.06;;;11.00;31.05
44138;BME280;29800;55.942;37.314;2023-05-08T07:50:54;101032.88;;;10.91;30.49
44138;BME280;29800;55.942;37.314;2023-05-08T07:53:20;101031.28;;;10.76;29.89
44138;BME280;29800;55.942;37.314;2023-05-08T07:55:46;101034.69;;;10.72;29.92
44138;BME280;29800;55.942;37.314;2023-05-08T07:58:13;101035.13;;;10.69;29.66
44138;BME280;29800;55.942;37.314;2023-05-08T08:00:39;101032.16;;;10.70;29.90
44138;BME280;29800;55.942;37.314;2023-05-08T08:03:05;101035.34;;;10.67;30.40
44138;BME280;29800;55.942;37.314;2023-05-08T08:05:32;101034.28;;;10.68;31.78
44138;BME280;29800;55.942;37.314;2023-05-08T08:07:58;101032.59;;;10.67;30.17
44138;BME280;29800;55.942;37.314;2023-05-08T08:10:25;101032.59;;;10.67;29.72
44138;BME280;29800;55.942;37.314;2023-05-08T08:12:52;101030.06;;;10.65;29.66
44138;BME280;29800;55.942;37.314;2023-05-08T08:15:18;101031.97;;;10.65;29.10
44138;BME280;29800;55.942;37.314;2023-05-08T08:17:44;101034.72;;;10.65;29.90
44138;BME280;29800;55.942;37.314;2023-05-08T08:20:11;101032.16;;;10.70;30.17
44138;BME280;29800;55.942;37.314;2023-05-08T08:22:37;101030.03;;;10.72;30.11
44138;BME280;29800;55.942;37.314;2023-05-08T08:25:04;101028.97;;;10.73;30.17
44138;BME280;29800;55.942;37.314;2023-05-08T08:27:31;101029.19;;;10.72;29.89
44138;BME280;29800;55.942;37.314;2023-05-08T08:29:57;101025.03;;;10.69;30.49
44138;BME280;29800;55.942;37.314;2023-05-08T08:32:23;101026.69;;;10.70;29.28
44138;BME280;29800;55.942;37.314;2023-05-08T08:34:50;101031.94;;;10.72;30.44
44138;BME280;29800;55.942;37.314;2023-05-08T08:37:17;101026.25;;;10.73;30.19
44138;BME280;29800;55.942;37.314;2023-05-08T08:39:43;101024.75;;;10.77;29.58
44138;BME280;29800;55.942;37.314;2023-05-08T08:42:10;101019.03;;;10.79;30.60
44138;BME280;29800;55.942;37.314;2023-05-08T08:44:37;101029.13;;;10.85;30.73
44138;BME280;29800;55.942;37.314;2023-05-08T08:47:04;101029.94;;;10.92;31.00
44138;BME280;29800;55.942;37.314;2023-05-08T08:49:34;101031.38;;;10.95;30.20
44138;BME280;29800;55.942;37.314;2023-05-08T08:52:21;101023.31;;;11.00;30.75
44138;BME280;29800;55.942;37.314;2023-05-08T08:54:54;101030.88;;;11.04;30.35
44138;BME280;29800;55.942;37.314;2023-05-08T08:57:23;101029.84;;;11.06;29.68
44138;BME280;29800;55.942;37.314;2023-05-08T08:59:53;101032.19;;;11.02;30.47
44138;BME280;29800;55.942;37.314;2023-05-08T09:02:21;101030.31;;;10.96;30.09
44138;BME280;29800;55.942;37.314;2023-05-08T09:04:49;101032.44;;;10.94;29.99
44138;BME280;29800;55.942;37.314;2023-05-08T09:07:16;101038.38;;;10.91;30.61
44138;BME280;29800;55.942;37.314;2023-05-08T09:09:43;101033.31;;;10.88;30.98
44138;BME280;29800;55.942;37.314;2023-05-08T09:12:11;101027.84;;;10.88;31.37
44138;BME280;29800;55.942;37.314;2023-05-08T09:14:39;101033.31;;;10.88;30.82
44138;BME280;29800;55.942;37.314;2023-05-08T09:17:06;101043.19;;;10.89;30.04
44138;BME280;29800;55.942;37.314;2023-05-08T09:19:32;101036.47;;;10.91;29.78
44138;BME280;29800;55.942;37.314;2023-05-08T09:21:59;101036.25;;;10.93;30.30
44138;BME280;29800;55.942;37.314;2023-05-08T09:27:23;101023.97;;;11.02;30.17
44138;BME280;29800;55.942;37.314;2023-05-08T09:30:09;101028.31;;;11.10;29.54
44138;BME280;29800;55.942;37.314;2023-05-08T09:32:41;101029.56;;;11.14;29.70
44138;BME280;29800;55.942;37.314;2023-05-08T09:35:09;101023.41;;;11.18;28.80
44138;BME280;29800;55.942;37.314;2023-05-08T09:37:42;101019.16;;;11.22;28.57
44138;BME280;29800;55.942;37.314;2023-05-08T09:40:17;101017.50;;;11.21;28.21
44138;BME280;29800;55.942;37.314;2023-05-08T09:42:48;101025.06;;;11.19;28.04
44138;BME280;29800;55.942;37.314;2023-05-08T09:45:33;101016.84;;;11.19;27.41
44138;BME280;29800;55.942;37.314;2023-05-08T09:48:00;101016.69;;;11.14;28.64
44138;BME280;29800;55.942;37.314;2023-05-08T09:50:26;101012.91;;;11.15;28.78
44138;BME280;29800;55.942;37.314;2023-05-08T09:52:53;101012.84;;;11.22;28.87
44138;BME280;29800;55.942;37.314;2023-05-08T09:55:19;101009.72;;;11.18;28.64
44138;BME280;29800;55.942;37.314;2023-05-08T09:57:54;101014.13;;;11.19;29.23
44138;BME280;29800;55.942;37.314;2023-05-08T10:00:23;101002.97;;;11.14;29.06
44138;BME280;29800;55.942;37.314;2023-05-08T10:03:01;101000.56;;;11.25;28.96
44138;BME280;29800;55.942;37.314;2023-05-08T10:05:32;100995.81;;;11.38;29.25
44138;BME280;29800;55.942;37.314;2023-05-08T10:08:20;100999.44;;;11.57;28.81
44138;BME280;29800;55.942;37.314;2023-05-08T10:10:47;101008.22;;;11.66;28.03
44138;BME280;29800;55.942;37.314;2023-05-08T10:13:14;100989.84;;;11.67;28.00
44138;BME280;29800;55.942;37.314;2023-05-08T10:15:44;100986.50;;;11.83;28.00
44138;BME280;29800;55.942;37.314;2023-05-08T10:18:11;100996.75;;;11.94;27.21
44138;BME280;29800;55.942;37.314;2023-05-08T10:20:41;100998.59;;;12.01;26.58
44138;BME280;29800;55.942;37.314;2023-05-08T10:23:14;100994.84;;;12.13;27.19
44138;BME280;29800;55.942;37.314;2023-05-08T10:25:43;100990.63;;;12.29;28.10
44138;BME280;29800;55.942;37.314;2023-05-08T10:30:49;100987.09;;;12.41;27.03
44138;BME280;29800;55.942;37.314;2023-05-08T10:33:20;100985.72;;;12.50;26.18
44138;BME280;29800;55.942;37.314;2023-05-08T10:35:47;100999.91;;;12.47;28.03
44138;BME280;29800;55.942;37.314;2023-05-08T10:38:15;100983.72;;;12.69;28.31
44138;BME280;29800;55.942;37.314;2023-05-08T10:40:42;100997.25;;;12.71;26.89
44138;BME280;29800;55.942;37.314;2023-05-08T10:43:08;100987.78;;;12.55;26.99
44138;BME280;29800;55.942;37.314;2023-05-08T10:45:37;100996.03;;;12.36;26.75
44138;BME280;29800;55.942;37.314;2023-05-08T10:53:58;100986.22;;;12.10;27.47
44138;BME280;29800;55.942;37.314;2023-05-08T10:56:28;100982.34;;;11.99;27.71
44138;BME280;29800;55.942;37.314;2023-05-08T10:58:55;100983.50;;;11.91;27.96
44138;BME280;29800;55.942;37.314;2023-05-08T11:01:23;100980.41;;;11.81;27.98
44138;BME280;29800;55.942;37.314;2023-05-08T11:03:50;100964.75;;;12.07;31.26
44138;BME280;29800;55.942;37.314;2023-05-08T11:06:46;100972.44;;;11.98;29.17
44138;BME280;29800;55.942;37.314;2023-05-08T11:09:27;100967.88;;;11.92;28.51
44138;BME280;29800;55.942;37.314;2023-05-08T11:12:06;100969.16;;;11.89;28.73
44138;BME280;29800;55.942;37.314;2023-05-08T11:14:36;100970.84;;;11.90;28.60
44138;BME280;29800;55.942;37.314;2023-05-08T11:17:05;100968.78;;;11.86;28.26
44138;BME280;29800;55.942;37.314;2023-05-08T11:19:32;100967.91;;;11.85;28.37
44138;BME280;29800;55.942;37.314;2023-05-08T11:22:21;100975.25;;;11.91;28.11
44138;BME280;29800;55.942;37.314;2023-05-08T11:24:53;100971.28;;;11.87;27.86
44138;BME280;29800;55.942;37.314;2023-05-08T11:30:21;100971.63;;;11.98;28.41
44138;BME280;29800;55.942;37.314;2023-05-08T11:38:14;100967.63;;;11.93;28.54
44138;BME280;29800;55.942;37.314;2023-05-08T11:46:04;100960.97;;;12.38;27.92
44138;BME280;29800;55.942;37.314;2023-05-08T11:48:34;100956.47;;;12.56;28.05
44138;BME280;29800;55.942;37.314;2023-05-08T11:51:02;100949.34;;;12.66;26.74
44138;BME280;29800;55.942;37.314;2023-05-08T11:53:30;100956.78;;;12.78;26.67
44138;BME280;29800;55.942;37.314;2023-05-08T11:55:57;100950.06;;;12.74;26.27
44138;BME280;29800;55.942;37.314;2023-05-08T11:58:25;100951.28;;;12.66;26.10
44138;BME280;29800;55.942;37.314;2023-05-08T12:00:52;100951.84;;;12.56;26.22
44138;BME280;29800;55.942;37.314;2023-05-08T12:03:21;100953.81;;;12.49;27.15
44138;BME280;29800;55.942;37.314;2023-05-08T12:05:50;100949.97;;;12.38;25.99
44138;BME280;29800;55.942;37.314;2023-05-08T12:08:20;100950.06;;;12.31;26.27
44138;BME280;29800;55.942;37.314;2023-05-08T12:10:50;100953.97;;;12.24;27.63
44138;BME280;29800;55.942;37.314;2023-05-08T12:13:18;100949.03;;;12.14;27.53
44138;BME280;29800;55.942;37.314;2023-05-08T12:15:54;100956.66;;;12.12;29.04
44138;BME280;29800;55.942;37.314;2023-05-08T12:18:23;100953.28;;;12.10;28.22
44138;BME280;29800;55.942;37.314;2023-05-08T12:20:57;100956.53;;;12.07;27.95
44138;BME280;29800;55.942;37.314;2023-05-08T12:23:25;100955.91;;;12.05;27.56
44138;BME280;29800;55.942;37.314;2023-05-08T12:25:52;100946.69;;;11.99;27.60
44138;BME280;29800;55.942;37.314;2023-05-08T12:28:19;100950.50;;;11.98;27.22
44138;BME280;29800;55.942;37.314;2023-05-08T12:30:46;100957.06;;;11.97;27.31
44138;BME280;29800;55.942;37.314;2023-05-08T12:33:14;100953.47;;;11.97;28.02
44138;BME280;29800;55.942;37.314;2023-05-08T12:35:41;100946.53;;;11.94;27.42
44138;BME280;29800;55.942;37.314;2023-05-08T12:38:08;100938.75;;;11.91;27.22
44138;BME280;29800;55.942;37.314;2023-05-08T12:40:46;100944.63;;;11.94;27.45
44138;BME280;29800;55.942;37.314;2023-05-08T12:43:18;100941.72;;;11.89;28.03
44138;BME280;29800;55.942;37.314;2023-05-08T12:45:44;100944.63;;;11.94;27.92
44138;BME280;29800;55.942;37.314;2023-05-08T12:48:13;100944.03;;;11.92;27.13
44138;BME280;29800;55.942;37.314;2023-05-08T12:50:42;100935.81;;;11.92;27.00
44138;BME280;29800;55.942;37.314;2023-05-08T12:53:10;100934.47;;;11.95;28.22
44138;BME280;29800;55.942;37.314;2023-05-08T12:55:38;100935.72;;;11.99;29.06
44138;BME280;29800;55.942;37.314;2023-05-08T12:58:11;100930.59;;;12.03;27.69
44138;BME280;29800;55.942;37.314;2023-05-08T13:00:46;100924.19;;;12.09;27.78
44138;BME280;29800;55.942;37.314;2023-05-08T13:03:21;100932.09;;;12.17;27.94
44138;BME280;29800;55.942;37.314;2023-05-08T13:05:49;100922.09;;;12.23;27.09
44138;BME280;29800;55.942;37.314;2023-05-08T13:08:15;100924.97;;;12.28;26.83
44138;BME280;29800;55.942;37.314;2023-05-08T13:10:53;100917.97;;;12.32;27.08
44138;BME280;29800;55.942;37.314;2023-05-08T13:13:22;100928.13;;;12.31;26.51
44138;BME280;29800;55.942;37.314;2023-05-08T13:15:49;100921.41;;;12.27;26.45
44138;BME280;29800;55.942;37.314;2023-05-08T13:18:17;100919.03;;;12.31;26.78
44138;BME280;29800;55.942;37.314;2023-05-08T13:20:44;100914.38;;;12.31;26.27
44138;BME280;29800;55.942;37.314;2023-05-08T13:23:11;100917.13;;;12.31;26.43
44138;BME280;29800;55.942;37.314;2023-05-08T13:25:39;100917.59;;;12.28;26.67
44138;BME280;29800;55.942;37.314;2023-05-08T13:28:07;100916.91;;;12.33;26.60
44138;BME280;29800;55.942;37.314;2023-05-08T13:30:35;100920.72;;;12.32;26.54
44138;BME280;29800;55.942;37.314;2023-05-08T13:33:03;100916.50;;;12.29;27.07
44138;BME280;29800;55.942;37.314;2023-05-08T13:35:31;100923.09;;;12.28;26.75
44138;BME280;29800;55.942;37.314;2023-05-08T13:37:58;100912.81;;;12.24;25.99
44138;BME280;29800;55.942;37.314;2023-05-08T13:40:25;100923.72;;;12.12;27.12
44138;BME280;29800;55.942;37.314;2023-05-08T13:42:52;100912.00;;;12.05;27.55
44138;BME280;29800;55.942;37.314;2023-05-08T13:45:19;100921.31;;;12.04;27.34
44138;BME280;29800;55.942;37.314;2023-05-08T13:47:47;100918.56;;;12.04;27.79
44138;BME280;29800;55.942;37.314;2023-05-08T13:50:15;100915.38;;;12.07;27.22